Time;durP1;ratioP1;P1;durP2;ratioP2;P2;SDS_P1;SDS_P2;PMS_P1;PMS_P2;Temp;Humidity;BMP_temperature;BMP_pressure;BME280_temperature;BME280_humidity;BME280_pressure;Samples;Min_cycle;Max_cycle;Signal;HPM_P1;HPM_P2
2023/10/10 00:01:03;;;;;;;17.92;14.65;;;;;;;;;;5087858;28;20101;-64
2023/10/10 00:03:31;;;;;;;18.58;14.07;;;;;;;;;;5080197;28;20024;-64
2023/10/10 00:05:58;;;;;;;19.88;15.38;;;;;;;;;;5083943;28;20550;-65
2023/10/10 00:08:34;;;;;;;25.92;17.02;;;;;;;;;;5082312;28;20068;-64
2023/10/10 00:10:59;;;;;;;22.15;16.23;;;;;;;;;;5077875;28;20032;-64
2023/10/10 00:13:25;;;;;;;21.88;15.52;;;;;;;;;;5081241;28;20572;-64
2023/10/10 00:15:51;;;;;;;18.92;14.70;;;;;;;;;;5080593;28;20028;-64
2023/10/10 00:18:19;;;;;;;19.02;14.93;;;;;;;;;;5080436;28;20038;-65
2023/10/10 00:21:06;;;;;;;16.05;13.10;;;;;;;;;;5078745;28;20793;-64
2023/10/10 00:23:38;;;;;;;19.65;14.13;;;;;;;;;;5076889;28;20136;-64
2023/10/10 00:26:05;;;;;;;21.75;14.95;;;;;;;;;;5080068;28;20816;-65
2023/10/10 00:28:33;;;;;;;27.83;15.52;;;;;;;;;;5075529;28;20446;-65
2023/10/10 00:30:59;;;;;;;23.58;15.73;;;;;;;;;;5084210;28;20024;-64
2023/10/10 00:33:24;;;;;;;25.00;16.65;;;;;;;;;;5079170;28;20615;-64
2023/10/10 00:35:49;;;;;;;23.25;17.33;;;;;;;;;;5077432;28;20044;-64
2023/10/10 00:38:24;;;;;;;21.05;12.98;;;;;;;;;;5072280;28;20028;-64
2023/10/10 00:40:49;;;;;;;20.48;14.13;;;;;;;;;;5076469;28;20135;-64
2023/10/10 00:43:16;;;;;;;18.52;14.50;;;;;;;;;;5082799;28;20030;-64
2023/10/10 00:45:42;;;;;;;22.15;15.60;;;;;;;;;;5086179;28;20110;-64
2023/10/10 00:48:09;;;;;;;26.08;16.55;;;;;;;;;;5085301;28;20024;-64
2023/10/10 00:50:36;;;;;;;23.77;17.88;;;;;;;;;;5086310;28;20457;-64
2023/10/10 00:53:04;;;;;;;18.30;13.98;;;;;;;;;;5085639;28;20034;-65
2023/10/10 00:55:33;;;;;;;22.42;14.45;;;;;;;;;;5084370;28;20032;-65
2023/10/10 00:58:00;;;;;;;21.65;14.95;;;;;;;;;;5086973;28;20568;-65
2023/10/10 01:00:29;;;;;;;19.40;15.18;;;;;;;;;;5087969;28;20032;-65
2023/10/10 01:02:56;;;;;;;21.98;16.40;;;;;;;;;;5085475;28;20066;-65
2023/10/10 01:05:32;;;;;;;21.83;14.10;;;;;;;;;;5085474;28;20107;-65
2023/10/10 01:07:59;;;;;;;23.70;16.23;;;;;;;;;;5083498;28;20052;-65
2023/10/10 01:10:24;;;;;;;21.65;15.50;;;;;;;;;;5079346;28;20028;-65
2023/10/10 01:12:49;;;;;;;20.33;15.88;;;;;;;;;;5081595;28;20028;-65
2023/10/10 01:15:16;;;;;;;23.70;16.95;;;;;;;;;;5079208;28;20044;-65
2023/10/10 01:17:43;;;;;;;24.33;16.50;;;;;;;;;;5080418;28;20060;-65
2023/10/10 01:20:14;;;;;;;23.23;16.83;;;;;;;;;;5080673;28;20504;-65
2023/10/10 01:22:46;;;;;;;20.23;13.95;;;;;;;;;;5083346;28;20112;-65
2023/10/10 01:27:56;;;;;;;23.25;16.35;;;;;;;;;;5073879;28;20051;-65
2023/10/10 01:30:43;;;;;;;23.20;16.50;;;;;;;;;;5075585;28;20048;-64
2023/10/10 01:33:07;;;;;;;24.85;16.80;;;;;;;;;;5078593;28;20039;-64
2023/10/10 01:35:34;;;;;;;21.48;16.13;;;;;;;;;;5083404;28;20027;-64
2023/10/10 01:37:59;;;;;;;23.10;16.23;;;;;;;;;;5081777;28;20020;-64
2023/10/10 01:40:28;;;;;;;22.30;15.32;;;;;;;;;;5081157;28;20039;-64
2023/10/10 01:42:54;;;;;;;18.75;14.18;;;;;;;;;;5073925;28;20161;-64
2023/10/10 01:45:19;;;;;;;19.80;15.48;;;;;;;;;;5066389;28;20028;-64
2023/10/10 01:47:56;;;;;;;25.67;16.48;;;;;;;;;;5067669;28;20099;-64
2023/10/10 01:50:22;;;;;;;23.75;15.93;;;;;;;;;;5083763;28;20047;-64
2023/10/10 01:52:49;;;;;;;27.02;14.27;;;;;;;;;;5086100;28;20370;-64
2023/10/10 01:55:17;;;;;;;19.23;14.75;;;;;;;;;;5078408;28;20035;-65
2023/10/10 01:57:42;;;;;;;18.75;14.07;;;;;;;;;;5075426;28;20056;-65
2023/10/10 02:00:20;;;;;;;18.80;14.35;;;;;;;;;;5080557;28;20052;-64
2023/10/10 02:02:49;;;;;;;20.15;13.73;;;;;;;;;;5077968;28;20111;-64
2023/10/10 02:05:22;;;;;;;15.15;12.68;;;;;;;;;;5083917;28;20035;-64
2023/10/10 02:07:53;;;;;;;16.48;12.93;;;;;;;;;;5086343;28;20027;-64
2023/10/10 02:10:18;;;;;;;16.48;11.80;;;;;;;;;;5085582;28;20116;-63
2023/10/10 02:12:44;;;;;;;21.65;12.15;;;;;;;;;;5080358;28;20027;-64
2023/10/10 02:15:12;;;;;;;17.60;13.23;;;;;;;;;;5083141;28;20055;-64
2023/10/10 02:17:42;;;;;;;18.88;12.85;;;;;;;;;;5083891;28;20073;-63
2023/10/10 02:22:51;;;;;;;18.83;12.32;;;;;;;;;;5074047;28;20494;-64
2023/10/10 02:25:37;;;;;;;18.80;11.85;;;;;;;;;;5068349;28;20394;-64
2023/10/10 02:28:05;;;;;;;18.95;12.35;;;;;;;;;;5083332;28;20024;-64
2023/10/10 02:35:56;;;;;;;19.85;11.95;;;;;;;;;;5075600;28;20043;-65
2023/10/10 02:38:22;;;;;;;17.90;11.80;;;;;;;;;;5080461;28;20798;-65
2023/10/10 02:40:55;;;;;;;18.35;11.80;;;;;;;;;;5080828;28;20398;-64
2023/10/10 02:43:46;;;;;;;15.52;11.23;;;;;;;;;;5084417;28;20538;-64
2023/10/10 02:46:12;;;;;;;17.20;11.27;;;;;;;;;;5066416;28;20028;-63
2023/10/10 02:48:42;;;;;;;17.17;11.57;;;;;;;;;;5082669;28;20158;-64
2023/10/10 02:51:07;;;;;;;17.70;11.63;;;;;;;;;;5081258;28;20028;-64
2023/10/10 02:53:32;;;;;;;18.40;11.37;;;;;;;;;;5081067;28;20019;-63
2023/10/10 02:56:01;;;;;;;16.50;11.03;;;;;;;;;;5083802;28;20274;-64
2023/10/10 02:58:28;;;;;;;19.67;11.98;;;;;;;;;;5082165;28;20814;-64
2023/10/10 03:00:58;;;;;;;18.85;11.68;;;;;;;;;;5083008;28;20027;-64
2023/10/10 03:03:24;;;;;;;20.90;11.82;;;;;;;;;;5084938;28;20389;-63
2023/10/10 03:05:54;;;;;;;15.80;10.50;;;;;;;;;;5084068;28;20554;-63
2023/10/10 03:11:01;;;;;;;17.55;10.60;;;;;;;;;;5087621;28;20461;-63
2023/10/10 03:13:37;;;;;;;19.05;11.63;;;;;;;;;;5092407;28;20096;-63
2023/10/10 03:21:50;;;;;;;20.95;10.63;;;;;;;;;;5089562;28;20035;-65
2023/10/10 03:24:50;;;;;;;17.50;10.95;;;;;;;;;;5090097;28;20127;-64
2023/10/10 03:27:11;;;;;;;15.80;10.73;;;;;;;;;;5088845;28;20052;-64
2023/10/10 03:29:37;;;;;;;17.30;10.32;;;;;;;;;;5089371;28;20143;-64
2023/10/10 03:34:56;;;;;;;16.20;10.45;;;;;;;;;;5070072;28;20125;-64
2023/10/10 05:24:26;;;;;;;15.40;8.75;;;;;;;;;;5092380;28;20104;-63
2023/10/10 05:26:54;;;;;;;15.82;8.63;;;;;;;;;;5085852;28;20024;-63
2023/10/10 05:29:19;;;;;;;13.10;8.73;;;;;;;;;;5086509;28;20028;-65
2023/10/10 05:31:45;;;;;;;13.13;8.93;;;;;;;;;;5092864;28;20031;-66
2023/10/10 05:34:10;;;;;;;11.40;7.60;;;;;;;;;;5091140;28;20454;-66
2023/10/10 05:36:36;;;;;;;12.38;8.48;;;;;;;;;;5092843;28;20031;-66
2023/10/10 05:39:01;;;;;;;10.95;7.97;;;;;;;;;;5090406;28;20081;-66
2023/10/10 05:41:27;;;;;;;15.20;9.85;;;;;;;;;;5092398;28;20110;-65
2023/10/10 05:43:56;;;;;;;13.10;9.10;;;;;;;;;;5092220;28;20100;-66
2023/10/10 05:46:21;;;;;;;15.63;8.88;;;;;;;;;;5091730;28;20024;-65
2023/10/10 05:48:46;;;;;;;17.60;9.13;;;;;;;;;;5092617;28;20035;-63
2023/10/10 05:51:13;;;;;;;16.08;9.63;;;;;;;;;;5092002;28;20467;-64
2023/10/10 05:53:40;;;;;;;13.65;9.18;;;;;;;;;;5091700;28;20485;-64
2023/10/10 05:56:16;;;;;;;14.77;9.10;;;;;;;;;;5092272;28;20070;-65
2023/10/10 05:58:42;;;;;;;13.50;9.13;;;;;;;;;;5092343;28;20076;-65
2023/10/10 06:01:09;;;;;;;12.27;9.15;;;;;;;;;;5092127;28;20031;-64
2023/10/10 06:03:35;;;;;;;16.50;9.95;;;;;;;;;;5091767;28;20032;-65
2023/10/10 06:06:03;;;;;;;14.05;9.27;;;;;;;;;;5092506;28;20039;-65
2023/10/10 06:08:31;;;;;;;15.00;9.00;;;;;;;;;;5088243;28;20544;-65
2023/10/10 06:10:56;;;;;;;14.25;9.43;;;;;;;;;;5070930;28;20032;-65
2023/10/10 06:13:22;;;;;;;11.05;8.43;;;;;;;;;;5091573;28;20035;-65
2023/10/10 06:15:50;;;;;;;13.75;9.15;;;;;;;;;;5091963;28;20088;-65
2023/10/10 06:18:15;;;;;;;20.35;8.52;;;;;;;;;;5088584;28;20032;-65
2023/10/10 06:20:41;;;;;;;12.57;8.52;;;;;;;;;;5092284;28;20027;-65
2023/10/10 06:23:07;;;;;;;16.85;9.48;;;;;;;;;;5091619;28;20027;-65
2023/10/10 06:25:32;;;;;;;14.32;9.15;;;;;;;;;;5091806;28;20031;-65
2023/10/10 06:28:00;;;;;;;15.07;8.77;;;;;;;;;;5091663;28;20022;-65
2023/10/10 06:30:26;;;;;;;14.32;9.35;;;;;;;;;;5091863;28;20031;-65
2023/10/10 06:32:51;;;;;;;16.70;8.82;;;;;;;;;;5091830;28;20024;-65
2023/10/10 06:37:45;;;;;;;16.83;8.70;;;;;;;;;;5091922;28;20068;-65
2023/10/10 06:40:10;;;;;;;16.08;8.95;;;;;;;;;;5091765;28;20058;-65
2023/10/10 06:42:37;;;;;;;14.65;8.77;;;;;;;;;;5091318;28;20035;-65
2023/10/10 06:45:10;;;;;;;18.58;9.48;;;;;;;;;;5090241;28;20031;-65
2023/10/10 06:47:39;;;;;;;12.70;8.73;;;;;;;;;;5090107;28;20020;-64
2023/10/10 06:50:10;;;;;;;18.08;10.20;;;;;;;;;;5091250;28;20027;-65
2023/10/10 06:52:36;;;;;;;13.57;9.80;;;;;;;;;;5088234;28;20024;-65
2023/10/10 06:55:10;;;;;;;15.10;9.00;;;;;;;;;;5087676;28;20104;-65
2023/10/10 06:57:36;;;;;;;14.80;10.18;;;;;;;;;;5090902;28;20466;-65
2023/10/10 07:02:48;;;;;;;12.57;7.72;;;;;;;;;;5075427;28;20063;-65
2023/10/10 07:05:15;;;;;;;11.73;8.23;;;;;;;;;;5073131;28;20039;-65
2023/10/10 07:07:41;;;;;;;13.98;8.30;;;;;;;;;;5091172;28;20020;-65
2023/10/10 07:10:09;;;;;;;13.52;7.05;;;;;;;;;;5090980;28;20402;-65
2023/10/10 07:12:35;;;;;;;11.30;6.80;;;;;;;;;;5090604;28;20111;-65
2023/10/10 07:15:01;;;;;;;10.50;7.47;;;;;;;;;;5086543;28;20169;-65
2023/10/10 07:17:31;;;;;;;10.77;7.25;;;;;;;;;;5091026;28;20019;-66
2023/10/10 07:22:45;;;;;;;11.00;6.88;;;;;;;;;;5089636;28;20039;-65
2023/10/10 07:25:18;;;;;;;12.02;6.57;;;;;;;;;;5091044;28;20386;-65
2023/10/10 07:27:44;;;;;;;10.32;7.07;;;;;;;;;;5091398;28;20051;-63
2023/10/10 07:30:16;;;;;;;15.10;6.60;;;;;;;;;;5091078;28;20024;-63
2023/10/10 07:32:48;;;;;;;10.18;5.88;;;;;;;;;;5077522;28;20379;-63
2023/10/10 07:35:16;;;;;;;15.30;6.35;;;;;;;;;;5090883;28;20028;-63
2023/10/10 07:37:43;;;;;;;9.45;6.13;;;;;;;;;;5087048;28;20584;-63
2023/10/10 07:40:28;;;;;;;11.93;6.25;;;;;;;;;;5090731;28;20540;-63
2023/10/10 07:42:58;;;;;;;9.52;5.68;;;;;;;;;;5090087;28;20032;-63
2023/10/10 07:45:33;;;;;;;9.90;5.60;;;;;;;;;;5073994;28;20052;-64
2023/10/10 07:50:50;;;;;;;8.88;5.35;;;;;;;;;;5073046;28;20085;-63
2023/10/10 07:53:17;;;;;;;11.45;5.80;;;;;;;;;;5084222;28;20370;-64
2023/10/10 07:56:00;;;;;;;12.88;6.68;;;;;;;;;;5085024;28;20467;-64
2023/10/10 07:58:43;;;;;;;8.17;5.23;;;;;;;;;;5093496;28;20081;-63
2023/10/10 08:01:09;;;;;;;10.68;5.70;;;;;;;;;;5093704;28;20101;-65
2023/10/10 08:03:35;;;;;;;9.32;5.60;;;;;;;;;;5085867;28;20539;-64
2023/10/10 08:06:00;;;;;;;11.77;5.85;;;;;;;;;;5091021;28;20115;-63
2023/10/10 08:08:26;;;;;;;10.40;5.67;;;;;;;;;;5094201;28;20050;-64
2023/10/10 08:10:51;;;;;;;14.75;6.30;;;;;;;;;;5093440;28;20286;-64
2023/10/10 08:13:17;;;;;;;9.10;4.97;;;;;;;;;;5093637;28;20098;-64
2023/10/10 08:23:30;;;;;;;8.75;5.13;;;;;;;;;;5094079;28;20111;-64
2023/10/10 08:25:56;;;;;;;8.77;4.97;;;;;;;;;;5080482;28;20032;-64
2023/10/10 08:28:22;;;;;;;11.30;5.03;;;;;;;;;;5093886;28;20032;-64
2023/10/10 08:30:48;;;;;;;10.10;5.50;;;;;;;;;;5093648;28;20077;-64
2023/10/10 08:33:14;;;;;;;9.40;5.75;;;;;;;;;;5093306;28;20052;-64
2023/10/10 08:35:39;;;;;;;10.48;5.28;;;;;;;;;;5080770;28;20055;-64
2023/10/10 08:38:07;;;;;;;12.00;4.90;;;;;;;;;;5093967;28;20063;-65
2023/10/10 08:40:36;;;;;;;9.70;5.65;;;;;;;;;;5036204;28;21145;-65
2023/10/10 08:43:07;;;;;;;10.50;5.57;;;;;;;;;;5032567;28;20016;-64
2023/10/10 08:45:39;;;;;;;10.82;6.20;;;;;;;;;;5040196;28;20121;-64
2023/10/10 08:48:09;;;;;;;15.02;4.68;;;;;;;;;;5035746;28;20369;-65
2023/10/10 08:50:35;;;;;;;11.75;4.60;;;;;;;;;;5056481;28;20027;-65
2023/10/10 08:53:02;;;;;;;10.02;5.47;;;;;;;;;;5092721;28;20428;-65
2023/10/10 08:55:28;;;;;;;10.20;5.28;;;;;;;;;;5066725;28;20043;-64
2023/10/10 08:57:55;;;;;;;13.15;5.57;;;;;;;;;;5092932;28;20121;-64
2023/10/10 09:00:21;;;;;;;11.00;5.07;;;;;;;;;;5093175;28;20020;-64
2023/10/10 09:02:48;;;;;;;9.95;5.40;;;;;;;;;;5083528;28;20028;-65
2023/10/10 09:05:14;;;;;;;8.93;5.20;;;;;;;;;;5075147;28;20036;-65
2023/10/10 09:07:43;;;;;;;8.15;5.05;;;;;;;;;;5088616;28;20404;-65
2023/10/10 09:10:14;;;;;;;11.95;5.50;;;;;;;;;;5092307;28;20091;-66
2023/10/10 09:12:52;;;;;;;10.90;4.93;;;;;;;;;;5092188;28;20085;-65
2023/10/10 09:15:18;;;;;;;9.27;5.45;;;;;;;;;;5087981;28;20032;-64
2023/10/10 09:17:45;;;;;;;10.00;5.85;;;;;;;;;;5092462;28;20020;-65
2023/10/10 09:20:22;;;;;;;8.60;5.35;;;;;;;;;;5093107;28;20535;-65
2023/10/10 09:22:51;;;;;;;10.73;6.00;;;;;;;;;;5082670;28;20047;-65
2023/10/10 09:25:31;;;;;;;9.35;6.03;;;;;;;;;;5092168;28;20540;-64
2023/10/10 09:28:00;;;;;;;8.20;5.40;;;;;;;;;;5092701;28;20028;-65
2023/10/10 09:30:31;;;;;;;9.80;5.30;;;;;;;;;;5090088;28;20111;-65
2023/10/10 09:35:49;;;;;;;10.20;5.22;;;;;;;;;;5088035;28;20471;-66
2023/10/10 09:38:19;;;;;;;10.00;5.63;;;;;;;;;;5091931;28;20436;-65
2023/10/10 09:40:46;;;;;;;9.80;5.63;;;;;;;;;;5092308;28;20035;-65
2023/10/10 09:43:23;;;;;;;12.43;6.07;;;;;;;;;;5081506;28;20030;-65
2023/10/10 09:45:55;;;;;;;9.45;5.45;;;;;;;;;;5092826;28;20413;-65
2023/10/10 09:51:30;;;;;;;7.68;5.18;;;;;;;;;;5017877;28;20470;-65
2023/10/10 09:54:07;;;;;;;8.82;5.20;;;;;;;;;;5088517;28;20051;-65
2023/10/10 09:56:34;;;;;;;10.30;5.78;;;;;;;;;;5091983;28;20073;-65
2023/10/10 09:59:00;;;;;;;13.07;5.72;;;;;;;;;;5091511;28;20032;-66
2023/10/10 10:01:27;;;;;;;9.00;5.65;;;;;;;;;;5092307;28;20081;-65
2023/10/10 10:04:00;;;;;;;8.75;4.93;;;;;;;;;;5092003;28;20379;-64
2023/10/10 10:06:52;;;;;;;9.45;5.70;;;;;;;;;;5091841;28;20062;-65
2023/10/10 10:09:32;;;;;;;12.88;6.00;;;;;;;;;;5086463;28;20024;-65
2023/10/10 10:12:19;;;;;;;10.35;5.45;;;;;;;;;;5091961;28;20077;-65
2023/10/10 10:15:04;;;;;;;11.05;5.15;;;;;;;;;;5086084;28;20130;-65
2023/10/10 10:17:44;;;;;;;8.45;4.75;;;;;;;;;;5088869;28;20020;-65
2023/10/10 10:20:20;;;;;;;12.27;5.40;;;;;;;;;;5090700;28;20032;-65
2023/10/10 10:22:45;;;;;;;9.68;4.85;;;;;;;;;;5092029;28;20043;-66
2023/10/10 10:25:21;;;;;;;8.82;5.47;;;;;;;;;;5091418;28;20055;-65
2023/10/10 10:27:49;;;;;;;9.63;5.05;;;;;;;;;;5089270;28;20035;-65
2023/10/10 10:32:44;;;;;;;10.65;4.90;;;;;;;;;;5091546;28;20344;-65
2023/10/10 10:35:14;;;;;;;10.60;5.32;;;;;;;;;;5091467;28;20453;-65
2023/10/10 10:37:40;;;;;;;7.95;5.00;;;;;;;;;;5091550;28;20020;-65
2023/10/10 10:42:41;;;;;;;7.68;5.25;;;;;;;;;;5090193;28;20401;-65
2023/10/10 10:45:26;;;;;;;8.85;5.35;;;;;;;;;;5090253;28;20046;-65
2023/10/10 10:47:54;;;;;;;9.38;5.20;;;;;;;;;;5086514;28;20550;-65
2023/10/10 10:50:28;;;;;;;8.40;5.35;;;;;;;;;;5091280;28;20024;-65
2023/10/10 10:52:57;;;;;;;8.48;4.70;;;;;;;;;;5085852;28;20391;-65
2023/10/10 10:55:27;;;;;;;8.50;4.95;;;;;;;;;;5077524;28;20034;-65
2023/10/10 10:58:05;;;;;;;7.03;4.80;;;;;;;;;;5091295;28;20030;-65
2023/10/10 11:03:35;;;;;;;9.82;5.07;;;;;;;;;;5090859;28;20032;-65
2023/10/10 11:06:06;;;;;;;9.18;4.95;;;;;;;;;;5090492;28;20051;-66
2023/10/10 11:13:59;;;;;;;9.68;5.63;;;;;;;;;;5082694;28;20357;-66
2023/10/10 11:16:34;;;;;;;7.47;4.57;;;;;;;;;;5084457;28;20028;-66
2023/10/10 11:19:12;;;;;;;9.40;4.80;;;;;;;;;;5085127;28;20386;-65
2023/10/10 11:21:37;;;;;;;7.88;4.60;;;;;;;;;;5081272;28;20047;-66
2023/10/10 11:24:04;;;;;;;9.48;5.50;;;;;;;;;;5087721;28;20471;-66
2023/10/10 11:26:34;;;;;;;10.05;4.85;;;;;;;;;;5080625;28;20116;-66
2023/10/10 11:28:59;;;;;;;10.75;4.90;;;;;;;;;;5090068;28;20039;-66
2023/10/10 11:31:28;;;;;;;8.68;5.28;;;;;;;;;;5086502;28;20012;-66
2023/10/10 11:34:26;;;;;;;6.93;4.32;;;;;;;;;;5075787;28;20475;-66
2023/10/10 11:36:42;;;;;;;11.93;4.78;;;;;;;;;;5084892;28;20027;-65
2023/10/10 11:39:31;;;;;;;10.88;4.93;;;;;;;;;;5090629;28;20069;-65
2023/10/10 11:41:56;;;;;;;7.28;4.95;;;;;;;;;;5082441;28;20107;-66
2023/10/10 11:44:21;;;;;;;9.98;4.90;;;;;;;;;;5092381;28;20448;-66
2023/10/10 11:46:48;;;;;;;6.38;4.00;;;;;;;;;;5092978;28;20487;-65
2023/10/10 11:49:17;;;;;;;9.45;5.57;;;;;;;;;;5093542;28;20103;-65
2023/10/10 11:51:42;;;;;;;11.32;5.45;;;;;;;;;;5093129;28;20023;-66
2023/10/10 11:54:08;;;;;;;11.07;4.68;;;;;;;;;;5092625;28;20016;-65
2023/10/10 11:56:36;;;;;;;10.30;5.00;;;;;;;;;;5092522;28;20356;-66
2023/10/10 11:59:09;;;;;;;9.75;5.10;;;;;;;;;;5092243;28;20277;-65
2023/10/10 12:01:51;;;;;;;11.27;5.03;;;;;;;;;;5091719;28;20040;-65
2023/10/10 12:04:32;;;;;;;8.43;4.97;;;;;;;;;;5091362;28;20046;-66
2023/10/10 12:07:00;;;;;;;13.88;5.28;;;;;;;;;;5093244;28;20478;-65
2023/10/10 12:09:26;;;;;;;7.07;4.63;;;;;;;;;;5092711;28;20015;-66
2023/10/10 12:11:58;;;;;;;6.38;3.95;;;;;;;;;;5093185;28;20020;-66
2023/10/10 12:14:24;;;;;;;8.35;4.97;;;;;;;;;;5092666;28;20106;-66
2023/10/10 12:16:57;;;;;;;9.32;4.40;;;;;;;;;;5091435;28;20027;-66
2023/10/10 12:19:22;;;;;;;6.75;4.30;;;;;;;;;;5092116;28;20038;-66
2023/10/10 12:21:47;;;;;;;7.17;4.77;;;;;;;;;;5090224;28;20099;-66
2023/10/10 12:24:13;;;;;;;6.47;4.07;;;;;;;;;;5092415;28;20020;-65
2023/10/10 12:26:41;;;;;;;7.28;4.47;;;;;;;;;;5092700;28;20024;-66
2023/10/10 12:29:10;;;;;;;7.18;4.18;;;;;;;;;;5092012;28;20130;-66
2023/10/10 12:31:36;;;;;;;9.45;4.25;;;;;;;;;;5091748;28;20051;-66
2023/10/10 12:34:01;;;;;;;9.77;4.00;;;;;;;;;;5091912;28;20054;-66
2023/10/10 12:36:30;;;;;;;8.48;4.07;;;;;;;;;;5092183;28;20028;-66
2023/10/10 12:38:55;;;;;;;6.97;4.00;;;;;;;;;;5090497;28;20047;-66
2023/10/10 12:41:21;;;;;;;7.47;4.00;;;;;;;;;;5091058;28;20109;-65
2023/10/10 12:43:50;;;;;;;6.68;3.72;;;;;;;;;;5091221;28;20382;-66
2023/10/10 12:46:17;;;;;;;6.15;3.70;;;;;;;;;;5091739;28;20040;-66
2023/10/10 12:48:46;;;;;;;6.50;3.88;;;;;;;;;;5092320;28;20030;-64
2023/10/10 12:51:12;;;;;;;6.45;3.72;;;;;;;;;;5091206;28;20024;-66
2023/10/10 12:53:39;;;;;;;8.32;4.00;;;;;;;;;;5092179;28;20019;-66
2023/10/10 12:56:05;;;;;;;7.25;4.10;;;;;;;;;;5092125;28;20024;-66
2023/10/10 12:58:31;;;;;;;5.95;3.70;;;;;;;;;;5075703;28;20532;-66
2023/10/10 13:00:58;;;;;;;6.68;3.80;;;;;;;;;;5091284;28;20058;-66
2023/10/10 13:03:27;;;;;;;6.20;3.65;;;;;;;;;;5090378;28;20020;-66
2023/10/10 13:05:59;;;;;;;5.63;3.63;;;;;;;;;;5092528;28;20060;-66
2023/10/10 13:08:25;;;;;;;6.47;3.25;;;;;;;;;;5079829;28;20374;-66
2023/10/10 13:11:01;;;;;;;5.55;2.92;;;;;;;;;;5092346;28;20028;-66
2023/10/10 13:13:31;;;;;;;6.50;4.10;;;;;;;;;;5092196;28;20020;-66
2023/10/10 13:18:41;;;;;;;6.88;3.30;;;;;;;;;;5091258;28;20043;-66
2023/10/10 13:21:07;;;;;;;7.22;3.70;;;;;;;;;;5089941;28;20020;-64
2023/10/10 13:23:35;;;;;;;6.35;3.38;;;;;;;;;;5090596;28;20020;-65
2023/10/10 13:26:00;;;;;;;9.38;3.53;;;;;;;;;;5090743;28;20028;-66
2023/10/10 13:28:25;;;;;;;5.70;3.57;;;;;;;;;;5091935;28;20016;-65
2023/10/10 13:30:51;;;;;;;7.90;4.00;;;;;;;;;;5091448;28;20351;-65
2023/10/10 13:33:16;;;;;;;9.73;3.80;;;;;;;;;;5090887;28;20106;-65
2023/10/10 13:35:42;;;;;;;7.15;3.50;;;;;;;;;;5091306;28;20679;-65
2023/10/10 13:38:08;;;;;;;9.00;3.53;;;;;;;;;;5090035;28;20038;-65
2023/10/10 13:40:48;;;;;;;4.60;2.90;;;;;;;;;;5089951;28;20032;-64
2023/10/10 13:43:17;;;;;;;6.22;2.78;;;;;;;;;;5089663;28;20053;-64
2023/10/10 13:45:43;;;;;;;7.13;3.28;;;;;;;;;;5090677;28;20028;-64
2023/10/10 13:48:08;;;;;;;5.00;2.80;;;;;;;;;;5091395;28;20024;-64
2023/10/10 13:50:44;;;;;;;8.60;3.30;;;;;;;;;;5088700;28;20019;-64
2023/10/10 13:53:14;;;;;;;5.55;3.00;;;;;;;;;;5088772;28;20024;-65
2023/10/10 13:55:43;;;;;;;10.05;3.50;;;;;;;;;;5082747;28;20020;-65
2023/10/10 13:58:16;;;;;;;6.32;2.83;;;;;;;;;;5084546;28;20028;-65
2023/10/10 14:00:52;;;;;;;5.40;3.05;;;;;;;;;;5088304;28;20344;-65
2023/10/10 14:03:28;;;;;;;7.07;3.30;;;;;;;;;;5091460;28;20023;-65
2023/10/10 14:06:10;;;;;;;6.35;2.95;;;;;;;;;;5085337;28;20119;-65
2023/10/10 14:08:35;;;;;;;7.97;3.50;;;;;;;;;;5080188;28;20447;-65
2023/10/10 14:11:00;;;;;;;6.03;3.00;;;;;;;;;;5090379;28;20063;-65
2023/10/10 14:13:27;;;;;;;4.68;2.75;;;;;;;;;;5091430;28;20067;-65
2023/10/10 14:15:55;;;;;;;5.57;3.10;;;;;;;;;;5089979;28;20020;-65
2023/10/10 14:18:26;;;;;;;4.63;2.47;;;;;;;;;;5085658;28;20504;-65
2023/10/10 14:20:51;;;;;;;7.90;2.92;;;;;;;;;;5088033;28;20067;-65
2023/10/10 14:23:26;;;;;;;6.13;2.92;;;;;;;;;;5081036;28;20028;-65
2023/10/10 14:25:52;;;;;;;7.55;2.97;;;;;;;;;;5089914;28;20760;-65
2023/10/10 14:28:17;;;;;;;9.77;3.22;;;;;;;;;;5090623;28;20035;-65
2023/10/10 14:30:43;;;;;;;10.38;3.22;;;;;;;;;;5090917;28;20080;-65
2023/10/10 14:33:09;;;;;;;7.13;3.20;;;;;;;;;;5089855;28;20100;-65
2023/10/10 14:35:34;;;;;;;10.13;3.17;;;;;;;;;;5087920;28;20070;-66
2023/10/10 14:38:00;;;;;;;9.07;3.22;;;;;;;;;;5088643;28;20277;-66
2023/10/10 14:40:26;;;;;;;12.70;3.88;;;;;;;;;;5090123;28;20152;-66
2023/10/10 14:42:54;;;;;;;9.50;3.27;;;;;;;;;;5090529;28;20128;-66
2023/10/10 14:45:24;;;;;;;6.32;3.35;;;;;;;;;;5088448;28;20286;-66
2023/10/10 14:47:51;;;;;;;6.93;3.53;;;;;;;;;;5089882;28;20103;-66
2023/10/10 14:50:23;;;;;;;9.98;3.42;;;;;;;;;;5080569;28;20023;-66
2023/10/10 14:52:48;;;;;;;5.45;3.38;;;;;;;;;;5091217;28;20020;-66
2023/10/10 14:55:27;;;;;;;7.53;2.87;;;;;;;;;;5089239;28;20384;-65
2023/10/10 14:57:56;;;;;;;5.15;3.05;;;;;;;;;;5088915;28;20281;-66
2023/10/10 15:00:22;;;;;;;8.07;3.08;;;;;;;;;;5089952;28;20028;-65
2023/10/10 15:02:47;;;;;;;6.57;2.88;;;;;;;;;;5090360;28;20390;-65
2023/10/10 15:05:14;;;;;;;8.30;3.88;;;;;;;;;;5090137;28;20035;-65
2023/10/10 15:07:41;;;;;;;5.35;3.03;;;;;;;;;;5096049;28;20028;-65
2023/10/10 15:10:07;;;;;;;8.05;3.35;;;;;;;;;;5096162;28;20024;-65
2023/10/10 15:12:33;;;;;;;8.02;3.33;;;;;;;;;;5096414;28;20039;-65
2023/10/10 15:15:00;;;;;;;6.95;2.75;;;;;;;;;;5096022;28;20149;-66
2023/10/10 15:17:27;;;;;;;6.28;3.20;;;;;;;;;;5095878;28;20075;-65
2023/10/10 15:19:52;;;;;;;6.15;3.30;;;;;;;;;;5095865;28;20536;-65
2023/10/10 15:22:18;;;;;;;5.50;2.55;;;;;;;;;;5097042;28;20055;-65
2023/10/10 15:24:49;;;;;;;7.85;3.05;;;;;;;;;;5096527;28;20027;-65
2023/10/10 15:27:15;;;;;;;8.40;3.33;;;;;;;;;;5096799;28;20036;-65
2023/10/10 15:29:42;;;;;;;7.93;2.92;;;;;;;;;;5094034;28;20023;-65
2023/10/10 15:32:07;;;;;;;8.35;3.22;;;;;;;;;;5096403;28;20489;-65
2023/10/10 15:34:32;;;;;;;7.13;3.17;;;;;;;;;;5096646;28;20020;-65
2023/10/10 15:37:00;;;;;;;6.93;2.80;;;;;;;;;;5096797;28;20286;-65
2023/10/10 15:39:25;;;;;;;5.70;3.10;;;;;;;;;;5096564;28;20115;-65
2023/10/10 15:41:50;;;;;;;8.70;2.93;;;;;;;;;;5096585;28;20107;-65
2023/10/10 15:44:15;;;;;;;7.55;3.17;;;;;;;;;;5096789;28;20294;-65
2023/10/10 15:46:43;;;;;;;7.20;2.97;;;;;;;;;;5094909;28;20051;-65
2023/10/10 15:49:11;;;;;;;9.45;3.47;;;;;;;;;;5095226;28;20285;-65
2023/10/10 15:51:39;;;;;;;6.50;3.00;;;;;;;;;;5090758;28;20494;-65
2023/10/10 15:54:08;;;;;;;8.38;3.50;;;;;;;;;;5088589;28;20040;-65
2023/10/10 15:56:34;;;;;;;7.38;3.65;;;;;;;;;;5096152;28;20027;-65
2023/10/10 15:59:00;;;;;;;6.22;3.17;;;;;;;;;;5096490;28;20809;-65
2023/10/10 16:01:30;;;;;;;8.68;3.45;;;;;;;;;;5096023;28;20020;-65
2023/10/10 16:03:55;;;;;;;6.07;3.20;;;;;;;;;;5095476;28;20031;-65
2023/10/10 16:06:24;;;;;;;7.90;3.20;;;;;;;;;;5095369;28;20390;-64
2023/10/10 16:08:51;;;;;;;6.80;3.28;;;;;;;;;;5090541;28;20326;-65
2023/10/10 16:11:16;;;;;;;6.85;3.30;;;;;;;;;;5078066;28;20139;-64
2023/10/10 16:13:41;;;;;;;5.85;3.20;;;;;;;;;;5094175;28;20091;-64
2023/10/10 16:16:07;;;;;;;6.20;3.15;;;;;;;;;;5094094;28;20028;-65
2023/10/10 16:18:35;;;;;;;4.55;2.63;;;;;;;;;;5091545;28;20078;-65
2023/10/10 16:21:07;;;;;;;7.35;3.10;;;;;;;;;;5091191;28;20488;-65
2023/10/10 16:23:34;;;;;;;4.88;2.55;;;;;;;;;;5092458;28;20065;-65
2023/10/10 16:26:04;;;;;;;5.70;2.78;;;;;;;;;;5093271;28;20027;-65
2023/10/10 16:28:29;;;;;;;8.80;2.88;;;;;;;;;;5092517;28;20654;-64
2023/10/10 16:30:54;;;;;;;9.80;3.57;;;;;;;;;;5086200;28;20106;-65
2023/10/10 16:33:23;;;;;;;5.22;2.90;;;;;;;;;;5092537;28;20305;-65
2023/10/10 16:35:49;;;;;;;8.32;3.75;;;;;;;;;;5086450;28;20526;-65
2023/10/10 16:38:21;;;;;;;8.38;2.72;;;;;;;;;;5092210;28;20183;-65
2023/10/10 16:40:49;;;;;;;7.43;3.70;;;;;;;;;;5087631;28;20033;-65
2023/10/10 16:43:17;;;;;;;8.60;3.33;;;;;;;;;;5091719;28;20032;-66
2023/10/10 16:45:43;;;;;;;8.75;3.17;;;;;;;;;;5093326;28;20027;-64
2023/10/10 16:48:08;;;;;;;8.30;3.58;;;;;;;;;;5093252;28;20398;-65
2023/10/10 16:50:34;;;;;;;6.30;2.95;;;;;;;;;;5087760;28;20028;-65
2023/10/10 16:52:59;;;;;;;6.82;2.47;;;;;;;;;;5092095;28;20379;-65
2023/10/10 16:55:24;;;;;;;12.93;3.35;;;;;;;;;;5092232;28;20031;-67
2023/10/10 16:57:49;;;;;;;6.10;3.03;;;;;;;;;;5092391;28;20016;-64
2023/10/10 17:00:15;;;;;;;6.10;3.55;;;;;;;;;;5092193;28;20031;-65
2023/10/10 17:02:41;;;;;;;7.05;3.08;;;;;;;;;;5091961;28;20028;-64
2023/10/10 17:05:11;;;;;;;6.85;3.35;;;;;;;;;;5093238;28;20056;-64
2023/10/10 17:07:37;;;;;;;6.68;3.33;;;;;;;;;;5092476;28;20107;-63
2023/10/10 17:10:05;;;;;;;11.23;3.17;;;;;;;;;;5091844;28;20016;-64
2023/10/10 17:12:30;;;;;;;6.30;3.03;;;;;;;;;;5091700;28;20093;-62
2023/10/10 17:14:56;;;;;;;8.00;3.47;;;;;;;;;;5091650;28;20028;-65
2023/10/10 17:17:24;;;;;;;6.13;3.25;;;;;;;;;;5092139;28;20395;-66
2023/10/10 17:19:49;;;;;;;8.10;2.97;;;;;;;;;;5092562;28;20058;-62
2023/10/10 17:22:16;;;;;;;7.47;3.60;;;;;;;;;;5090887;28;20020;-62
2023/10/10 17:24:43;;;;;;;8.70;3.25;;;;;;;;;;5091728;28;20156;-62
2023/10/10 17:27:08;;;;;;;8.07;3.35;;;;;;;;;;5092707;28;20035;-64
2023/10/10 17:29:35;;;;;;;6.15;3.00;;;;;;;;;;5087925;28;20028;-64
2023/10/10 17:32:01;;;;;;;7.85;2.88;;;;;;;;;;5089416;28;20110;-62